Time,TemperatureF,DewpointF,PressureIn,WindDirection,WindDirectionDegrees,WindSpeedMPH,WindSpeedGustMPH,Humidity,HourlyPrecipIn,Conditions,Clouds,dailyrainin,SoftwareType,DateUTC
2013-03-30 00:00:00,47.2,45.8,30.09,NE,51,3.0,3.0,95,0.00,,,0.01,Wunderground v.1.15,2013-03-30 07:00:00,
2013-03-30 00:05:00,47.2,45.8,30.09,NE,50,3.0,4.0,95,0.00,,,0.00,Wunderground v.1.15,2013-03-30 07:05:00,
2013-03-30 00:11:00,47.2,45.8,30.09,NE,51,3.0,3.0,95,0.00,,,0.00,Wunderground v.1.15,2013-03-30 07:11:00,
2013-03-30 00:16:00,47.1,45.7,30.09,NE,54,3.0,4.0,95,0.00,,,0.00,Wunderground v.1.15,2013-03-30 07:16:00,
2013-03-30 00:22:00,47.0,45.6,30.09,NE,54,3.0,4.0,95,0.00,,,0.00,Wunderground v.1.15,2013-03-30 07:22:00,
2013-03-30 00:28:00,47.0,45.6,30.09,NE,51,3.0,4.0,95,0.00,,,0.00,Wunderground v.1.15,2013-03-30 07:28:00,
2013-03-30 00:33:00,47.0,45.9,30.09,NE,39,3.0,4.0,96,0.00,,,0.00,Wunderground v.1.15,2013-03-30 07:33:00,
2013-03-30 00:39:00,47.1,46.0,30.09,NE,39,3.0,4.0,96,0.00,,,0.00,Wunderground v.1.15,2013-03-30 07:39:00,
2013-03-30 00:45:00,46.9,45.5,30.09,NE,39,3.0,3.0,95,0.00,,,0.00,Wunderground v.1.15,2013-03-30 07:45:00,
2013-03-30 00:51:00,46.9,45.8,30.08,NE,43,3.0,5.0,96,0.00,,,0.00,Wunderground v.1.15,2013-03-30 07:51:00,
2013-03-30 00:57:00,46.9,45.8,30.08,NE,44,3.0,5.0,96,0.00,,,0.00,Wunderground v.1.15,2013-03-30 07:57:00,
2013-03-30 01:03:00,46.9,45.8,30.08,NE,46,3.0,6.0,96,0.00,,,0.00,Wunderground v.1.15,2013-03-30 08:03:00,
2013-03-30 01:08:00,46.7,45.6,30.08,NE,47,3.0,6.0,96,0.00,,,0.00,Wunderground v.1.15,2013-03-30 08:08:00,
2013-03-30 01:14:00,46.5,45.1,30.08,NE,47,3.0,6.0,95,0.00,,,0.00,Wunderground v.1.15,2013-03-30 08:14:00,
2013-03-30 01:19:00,46.3,45.2,30.07,NE,47,3.0,6.0,96,0.00,,,0.00,Wunderground v.1.15,2013-03-30 08:19:00,
2013-03-30 01:25:00,46.1,45.0,30.07,ENE,57,4.0,6.0,96,0.00,,,0.00,Wunderground v.1.15,2013-03-30 08:25:00,
2013-03-30 01:30:00,46.0,44.9,30.08,ENE,57,4.0,4.0,96,0.00,,,0.00,Wunderground v.1.15,2013-03-30 08:30:00,
2013-03-30 01:36:00,45.9,44.8,30.08,ENE,57,2.0,6.0,96,0.00,,,0.00,Wunderground v.1.15,2013-03-30 08:36:00,
2013-03-30 01:41:00,45.9,44.8,30.08,ENE,57,2.0,6.0,96,0.00,,,0.00,Wunderground v.1.15,2013-03-30 08:41:00,
2013-03-30 01:46:00,46.0,44.9,30.08,ENE,57,2.0,6.0,96,0.00,,,0.00,Wunderground v.1.15,2013-03-30 08:46:00,
2013-03-30 01:53:00,46.3,45.2,30.08,ENE,57,3.0,6.0,96,0.00,,,0.00,Wunderground v.1.15,2013-03-30 08:53:00,
2013-03-30 01:58:00,46.3,45.2,30.08,ENE,57,2.0,6.0,96,0.00,,,0.00,Wunderground v.1.15,2013-03-30 08:58:00,
2013-03-30 02:04:00,46.1,45.0,30.08,ENE,57,2.0,6.0,96,0.00,,,0.00,Wunderground v.1.15,2013-03-30 09:04:00,
2013-03-30 02:09:00,45.7,44.6,30.08,ENE,57,2.0,6.0,96,0.00,,,0.00,Wunderground v.1.15,2013-03-30 09:09:00,
2013-03-30 02:14:00,45.9,45.1,30.07,NE,53,3.0,6.0,97,0.00,,,0.00,Wunderground v.1.15,2013-03-30 09:14:00,
2013-03-30 02:20:00,46.4,45.6,30.07,NE,44,3.0,3.0,97,0.00,,,0.00,Wunderground v.1.15,2013-03-30 09:20:00,
2013-03-30 02:26:00,46.6,45.8,30.07,NE,41,3.0,6.0,97,0.00,,,0.00,Wunderground v.1.15,2013-03-30 09:26:00,
2013-03-30 02:33:00,46.9,46.1,30.07,NE,51,3.0,6.0,97,0.00,,,0.00,Wunderground v.1.15,2013-03-30 09:33:00,
2013-03-30 02:35:00,46.9,46.1,30.06,NE,51,3.0,6.0,97,0.00,,,0.00,Wunderground v.1.15,2013-03-30 09:35:00,
2013-03-30 02:40:00,47.0,46.2,30.07,NE,51,3.0,6.0,97,0.00,,,0.00,Wunderground v.1.15,2013-03-30 09:40:00,
2013-03-30 02:46:00,46.8,45.7,30.07,NE,51,2.0,6.0,96,0.00,,,0.00,Wunderground v.1.15,2013-03-30 09:46:00,
2013-03-30 02:52:00,46.5,45.4,30.06,NE,52,3.0,6.0,96,0.00,,,0.00,Wunderground v.1.15,2013-03-30 09:52:00,
2013-03-30 02:58:00,46.5,45.7,30.06,NE,49,3.0,6.0,97,0.00,,,0.00,Wunderground v.1.15,2013-03-30 09:58:00,
2013-03-30 03:04:00,46.7,45.9,30.06,NE,44,3.0,6.0,97,0.00,,,0.00,Wunderground v.1.15,2013-03-30 10:04:00,
2013-03-30 03:10:00,46.7,45.6,30.06,NE,44,3.0,6.0,96,0.00,,,0.00,Wunderground v.1.15,2013-03-30 10:10:00,
2013-03-30 03:15:00,46.6,45.8,30.06,NE,44,2.0,6.0,97,0.00,,,0.00,Wunderground v.1.15,2013-03-30 10:15:00,
2013-03-30 03:20:00,46.7,45.9,30.06,NE,45,2.0,6.0,97,0.00,,,0.00,Wunderground v.1.15,2013-03-30 10:20:00,
2013-03-30 03:25:00,46.9,46.1,30.06,NE,45,3.0,6.0,97,0.00,,,0.00,Wunderground v.1.15,2013-03-30 10:25:00,
2013-03-30 03:31:00,47.2,46.4,30.06,NE,46,3.0,6.0,97,0.00,,,0.00,Wunderground v.1.15,2013-03-30 10:31:00,
2013-03-30 03:37:00,47.6,46.8,30.06,NE,42,4.0,6.0,97,0.00,,,0.00,Wunderground v.1.15,2013-03-30 10:37:00,
2013-03-30 03:43:00,47.5,46.4,30.06,NE,51,4.0,6.0,96,0.00,,,0.00,Wunderground v.1.15,2013-03-30 10:43:00,
2013-03-30 03:48:00,47.0,45.9,30.05,ENE,62,4.0,6.0,96,0.00,,,0.00,Wunderground v.1.15,2013-03-30 10:48:00,
2013-03-30 03:53:00,46.5,45.4,30.05,ENE,65,5.0,6.0,96,0.00,,,0.00,Wunderground v.1.15,2013-03-30 10:53:00,
2013-03-30 03:58:00,46.4,45.6,30.05,ENE,62,4.0,6.0,97,0.00,,,0.00,Wunderground v.1.15,2013-03-30 10:58:00,
2013-03-30 04:05:00,46.5,45.7,30.05,NE,54,3.0,6.0,97,0.00,,,0.00,Wunderground v.1.15,2013-03-30 11:05:00,
2013-03-30 04:10:00,46.7,45.9,30.05,NE,53,3.0,6.0,97,0.00,,,0.00,Wunderground v.1.15,2013-03-30 11:10:00,
2013-03-30 04:16:00,46.8,46.0,30.05,NE,46,3.0,6.0,97,0.00,,,0.00,Wunderground v.1.15,2013-03-30 11:16:00,
2013-03-30 04:21:00,47.1,46.3,30.05,NE,46,3.0,6.0,97,0.00,,,0.00,Wunderground v.1.15,2013-03-30 11:21:00,
2013-03-30 04:27:00,47.4,46.6,30.04,NE,42,3.0,6.0,97,0.00,,,0.00,Wunderground v.1.15,2013-03-30 11:27:00,
2013-03-30 04:33:00,47.4,46.6,30.04,NE,42,3.0,6.0,97,0.00,,,0.00,Wunderground v.1.15,2013-03-30 11:33:00,
2013-03-30 04:39:00,47.4,46.6,30.04,ENE,59,4.0,6.0,97,0.00,,,0.00,Wunderground v.1.15,2013-03-30 11:39:00,
2013-03-30 04:45:00,47.4,46.6,30.04,NE,49,4.0,6.0,97,0.00,,,0.00,Wunderground v.1.15,2013-03-30 11:45:00,
2013-03-30 04:50:00,47.3,46.5,30.04,NNE,30,4.0,4.0,97,0.00,,,0.00,Wunderground v.1.15,2013-03-30 11:50:00,
2013-03-30 04:56:00,46.8,45.7,30.03,ENE,66,4.0,7.0,96,0.00,,,0.00,Wunderground v.1.15,2013-03-30 11:56:00,
2013-03-30 05:01:00,46.3,45.2,30.03,NE,39,4.0,6.0,96,0.00,,,0.00,Wunderground v.1.15,2013-03-30 12:01:00,
2013-03-30 05:06:00,46.3,45.5,30.03,ENE,71,4.0,7.0,97,0.00,,,0.00,Wunderground v.1.15,2013-03-30 12:06:00,
2013-03-30 05:11:00,46.5,45.7,30.03,NE,56,5.0,8.0,97,0.00,,,0.00,Wunderground v.1.15,2013-03-30 12:11:00,
2013-03-30 05:17:00,46.6,45.8,30.03,ENE,69,6.0,8.0,97,0.00,,,0.00,Wunderground v.1.15,2013-03-30 12:17:00,
2013-03-30 05:23:00,46.6,45.8,30.03,ENE,67,7.0,7.0,97,0.00,,,0.00,Wunderground v.1.15,2013-03-30 12:23:00,
2013-03-30 05:28:00,46.6,45.8,30.03,ENE,67,7.0,9.0,97,0.00,,,0.00,Wunderground v.1.15,2013-03-30 12:28:00,
2013-03-30 05:33:00,46.6,45.8,30.03,ENE,62,8.0,10.0,97,0.00,,,0.00,Wunderground v.1.15,2013-03-30 12:33:00,
2013-03-30 05:38:00,46.7,45.9,30.03,ENE,61,8.0,10.0,97,0.00,,,0.00,Wunderground v.1.15,2013-03-30 12:38:00,
2013-03-30 05:44:00,46.9,46.1,30.03,ENE,63,7.0,8.0,97,0.00,,,0.00,Wunderground v.1.15,2013-03-30 12:44:00,
2013-03-30 05:49:00,47.0,46.2,30.03,ENE,65,7.0,8.0,97,0.00,,,0.00,Wunderground v.1.15,2013-03-30 12:49:00,
2013-03-30 05:54:00,47.2,46.4,30.02,ENE,57,7.0,7.0,97,0.00,,,0.00,Wunderground v.1.15,2013-03-30 12:54:00,
2013-03-30 06:00:00,47.3,46.5,30.03,NE,43,6.0,6.0,97,0.00,,,0.00,Wunderground v.1.15,2013-03-30 13:00:00,
2013-03-30 06:05:00,47.0,46.2,30.03,ENE,57,4.0,6.0,97,0.00,,,0.00,Wunderground v.1.15,2013-03-30 13:05:00,
2013-03-30 06:12:00,47.1,46.3,30.02,NE,51,4.0,6.0,97,0.00,,,0.00,Wunderground v.1.15,2013-03-30 13:12:00,
2013-03-30 06:18:00,47.4,46.6,30.02,NE,53,4.0,7.0,97,0.00,,,0.00,Wunderground v.1.15,2013-03-30 13:18:00,
2013-03-30 06:24:00,47.5,46.7,30.02,NE,34,4.0,6.0,97,0.00,,,0.00,Wunderground v.1.15,2013-03-30 13:24:00,
2013-03-30 06:30:00,47.4,46.3,30.02,NE,56,4.0,6.0,96,0.00,,,0.00,Wunderground v.1.15,2013-03-30 13:30:00,
2013-03-30 06:35:00,47.2,46.1,30.02,NE,55,4.0,6.0,96,0.00,,,0.00,Wunderground v.1.15,2013-03-30 13:35:00,
2013-03-30 06:40:00,46.9,45.8,30.02,NE,50,4.0,6.0,96,0.00,,,0.00,Wunderground v.1.15,2013-03-30 13:40:00,
2013-03-30 06:46:00,46.5,45.4,30.02,ENE,60,4.0,6.0,96,0.00,,,0.00,Wunderground v.1.15,2013-03-30 13:46:00,
2013-03-30 06:51:00,46.7,45.9,30.02,NE,47,4.0,6.0,97,0.00,,,0.00,Wunderground v.1.15,2013-03-30 13:51:00,
2013-03-30 06:57:00,46.9,46.1,30.02,NE,43,4.0,6.0,97,0.00,,,0.00,Wunderground v.1.15,2013-03-30 13:57:00,
2013-03-30 07:02:00,47.0,46.2,30.02,ENE,69,5.0,6.0,97,0.00,,,0.00,Wunderground v.1.15,2013-03-30 14:02:00,
2013-03-30 07:08:00,47.3,46.5,30.02,NE,38,4.0,6.0,97,0.00,,,0.00,Wunderground v.1.15,2013-03-30 14:08:00,
2013-03-30 07:14:00,47.6,46.8,30.02,NE,35,4.0,6.0,97,0.00,,,0.00,Wunderground v.1.15,2013-03-30 14:14:00,
2013-03-30 07:20:00,47.9,47.1,30.02,NE,47,5.0,6.0,97,0.00,,,0.00,Wunderground v.1.15,2013-03-30 14:20:00,
2013-03-30 07:25:00,48.2,47.1,30.01,NE,36,6.0,9.0,96,0.00,,,0.00,Wunderground v.1.15,2013-03-30 14:25:00,
2013-03-30 07:30:00,48.5,47.4,30.01,NE,55,7.0,8.0,96,0.00,,,0.00,Wunderground v.1.15,2013-03-30 14:30:00,
2013-03-30 07:37:00,48.8,47.7,30.01,NE,56,7.0,9.0,96,0.00,,,0.00,Wunderground v.1.15,2013-03-30 14:37:00,
2013-03-30 07:43:00,48.9,47.8,30.01,ENE,57,6.0,7.0,96,0.00,,,0.00,Wunderground v.1.15,2013-03-30 14:43:00,
2013-03-30 07:48:00,49.0,47.9,30.01,ENE,64,6.0,7.0,96,0.00,,,0.00,Wunderground v.1.15,2013-03-30 14:48:00,
2013-03-30 07:53:00,49.0,47.6,30.01,ENE,66,6.0,7.0,95,0.00,,,0.00,Wunderground v.1.15,2013-03-30 14:53:00,
2013-03-30 08:00:00,49.0,47.6,30.01,NE,54,5.0,5.0,95,0.00,,,0.00,Wunderground v.1.15,2013-03-30 15:00:00,
2013-03-30 08:06:00,49.2,48.1,30.01,NE,53,4.0,7.0,96,0.00,,,0.00,Wunderground v.1.15,2013-03-30 15:06:00,
2013-03-30 08:12:00,49.2,47.8,30.01,NE,53,4.0,6.0,95,0.00,,,0.00,Wunderground v.1.15,2013-03-30 15:12:00,
2013-03-30 08:18:00,49.2,48.1,30.01,NE,43,4.0,6.0,96,0.00,,,0.00,Wunderground v.1.15,2013-03-30 15:18:00,
2013-03-30 08:23:00,49.3,48.2,30.01,NE,55,3.0,6.0,96,0.00,,,0.00,Wunderground v.1.15,2013-03-30 15:23:00,
2013-03-30 08:30:00,49.5,48.4,30.01,NE,53,3.0,6.0,96,0.00,,,0.00,Wunderground v.1.15,2013-03-30 15:30:00,
2013-03-30 08:36:00,49.7,48.6,30.01,NE,38,3.0,6.0,96,0.00,,,0.00,Wunderground v.1.15,2013-03-30 15:36:00,
2013-03-30 08:42:00,50.0,48.9,30.01,NNE,28,3.0,6.0,96,0.00,,,0.00,Wunderground v.1.15,2013-03-30 15:42:00,
2013-03-30 08:48:00,50.4,49.3,30.01,NE,36,2.0,6.0,96,0.00,,,0.00,Wunderground v.1.15,2013-03-30 15:48:00,
2013-03-30 08:54:00,50.7,49.6,30.01,NNE,30,3.0,6.0,96,0.00,,,0.00,Wunderground v.1.15,2013-03-30 15:54:00,
2013-03-30 08:59:00,50.7,49.3,30.01,NE,45,3.0,6.0,95,0.00,,,0.00,Wunderground v.1.15,2013-03-30 15:59:00,
2013-03-30 09:05:00,51.1,50.0,30.01,NE,51,3.0,6.0,96,0.00,,,0.00,Wunderground v.1.15,2013-03-30 16:05:00,
2013-03-30 09:10:00,51.8,50.7,30.01,NE,49,4.0,6.0,96,0.00,,,0.00,Wunderground v.1.15,2013-03-30 16:10:00,
2013-03-30 09:15:00,52.4,51.3,30.01,NE,46,4.0,6.0,96,0.00,,,0.00,Wunderground v.1.15,2013-03-30 16:15:00,
2013-03-30 09:21:00,53.1,52.0,30.01,NE,44,3.0,6.0,96,0.00,,,0.00,Wunderground v.1.15,2013-03-30 16:21:00,
2013-03-30 09:27:00,53.5,52.1,30.01,ENE,76,4.0,7.0,95,0.00,,,0.00,Wunderground v.1.15,2013-03-30 16:27:00,
2013-03-30 09:33:00,54.6,52.9,30.01,ENE,65,5.0,6.0,94,0.00,,,0.00,Wunderground v.1.15,2013-03-30 16:33:00,
2013-03-30 09:39:00,55.8,54.1,30.01,NE,39,4.0,6.0,94,0.00,,,0.00,Wunderground v.1.15,2013-03-30 16:39:00,
2013-03-30 09:44:00,56.2,54.2,30.01,NE,48,3.0,6.0,93,0.00,,,0.00,Wunderground v.1.15,2013-03-30 16:44:00,
2013-03-30 09:49:00,56.7,54.1,30.01,ENE,59,4.0,6.0,91,0.00,,,0.00,Wunderground v.1.15,2013-03-30 16:49:00,
2013-03-30 09:55:00,57.6,54.7,30.01,ENE,57,5.0,6.0,90,0.00,,,0.00,Wunderground v.1.15,2013-03-30 16:55:00,
2013-03-30 10:00:00,58.3,54.8,30.01,ENE,69,5.0,5.0,88,0.00,,,0.00,Wunderground v.1.15,2013-03-30 17:00:00,
2013-03-30 10:05:00,58.3,54.4,30.02,ENE,59,4.0,6.0,87,0.00,,,0.00,Wunderground v.1.15,2013-03-30 17:05:00,
2013-03-30 10:11:00,58.7,54.5,30.01,ENE,63,5.0,6.0,86,0.00,,,0.00,Wunderground v.1.15,2013-03-30 17:11:00,
2013-03-30 10:17:00,59.2,54.7,30.01,NE,51,5.0,8.0,85,0.00,,,0.00,Wunderground v.1.15,2013-03-30 17:17:00,
2013-03-30 10:22:00,60.0,55.2,30.02,SSE,150,5.0,6.0,84,0.00,,,0.00,Wunderground v.1.15,2013-03-30 17:22:00,
2013-03-30 10:28:00,60.5,54.3,30.02,South,175,4.0,8.0,80,0.00,,,0.00,Wunderground v.1.15,2013-03-30 17:28:00,
2013-03-30 10:33:00,60.7,54.1,30.01,South,184,5.0,7.0,79,0.00,,,0.00,Wunderground v.1.15,2013-03-30 17:33:00,
2013-03-30 10:38:00,61.0,53.7,30.01,SSW,201,5.0,9.0,77,0.00,,,0.00,Wunderground v.1.15,2013-03-30 17:38:00,
2013-03-30 10:45:00,61.0,53.0,30.02,South,181,7.0,9.0,75,0.00,,,0.00,Wunderground v.1.15,2013-03-30 17:45:00,
2013-03-30 10:50:00,61.1,52.7,30.02,South,180,7.0,10.0,74,0.00,,,0.00,Wunderground v.1.15,2013-03-30 17:50:00,
2013-03-30 10:56:00,61.2,52.5,30.02,South,190,6.0,10.0,73,0.00,,,0.00,Wunderground v.1.15,2013-03-30 17:56:00,
2013-03-30 11:01:00,60.9,52.2,30.02,South,184,7.0,9.0,73,0.00,,,0.00,Wunderground v.1.15,2013-03-30 18:01:00,
2013-03-30 11:06:00,60.7,52.4,30.02,South,191,8.0,9.0,74,0.00,,,0.00,Wunderground v.1.15,2013-03-30 18:06:00,
2013-03-30 11:12:00,60.5,52.2,30.02,South,173,7.0,9.0,74,0.00,,,0.00,Wunderground v.1.15,2013-03-30 18:12:00,
2013-03-30 11:17:00,60.3,52.0,30.02,South,185,7.0,9.0,74,0.00,,,0.00,Wunderground v.1.15,2013-03-30 18:17:00,
2013-03-30 11:23:00,59.9,51.6,30.02,SSW,192,7.0,8.0,74,0.00,,,0.00,Wunderground v.1.15,2013-03-30 18:23:00,
2013-03-30 11:28:00,59.8,51.9,30.02,SSW,193,6.0,8.0,75,0.00,,,0.00,Wunderground v.1.15,2013-03-30 18:28:00,
2013-03-30 11:34:00,59.6,51.7,30.02,SSW,193,6.0,7.0,75,0.00,,,0.00,Wunderground v.1.15,2013-03-30 18:34:00,
2013-03-30 11:39:00,59.6,51.7,30.02,SSW,193,5.0,7.0,75,0.00,,,0.00,Wunderground v.1.15,2013-03-30 18:39:00,
2013-03-30 11:45:00,59.5,51.6,30.02,SSW,193,5.0,7.0,75,0.00,,,0.00,Wunderground v.1.15,2013-03-30 18:45:00,
2013-03-30 11:50:00,59.2,51.3,30.01,SSW,194,5.0,6.0,75,0.00,,,0.00,Wunderground v.1.15,2013-03-30 18:50:00,
2013-03-30 11:56:00,58.6,50.7,30.01,SSW,195,6.0,7.0,75,0.00,,,0.00,Wunderground v.1.15,2013-03-30 18:56:00,
2013-03-30 12:01:00,58.2,51.0,30.01,SSW,193,6.0,6.0,77,0.00,,,0.00,Wunderground v.1.15,2013-03-30 19:01:00,
2013-03-30 12:06:00,58.3,51.1,30.01,SSW,194,6.0,7.0,77,0.00,,,0.00,Wunderground v.1.15,2013-03-30 19:06:00,
2013-03-30 12:12:00,58.2,50.7,30.01,SSW,194,6.0,6.0,76,0.00,,,0.00,Wunderground v.1.15,2013-03-30 19:12:00,
2013-03-30 12:18:00,58.3,50.8,30.01,SSW,194,6.0,6.0,76,0.00,,,0.00,Wunderground v.1.15,2013-03-30 19:18:00,
2013-03-30 12:23:00,58.1,50.6,30.01,SSW,194,6.0,7.0,76,0.00,,,0.00,Wunderground v.1.15,2013-03-30 19:23:00,
2013-03-30 12:28:00,58.2,51.4,30.01,SSW,194,6.0,7.0,78,0.00,,,0.00,Wunderground v.1.15,2013-03-30 19:28:00,
2013-03-30 12:34:00,58.5,51.3,30.01,SSW,194,5.0,6.0,77,0.00,,,0.00,Wunderground v.1.15,2013-03-30 19:34:00,
2013-03-30 12:39:00,58.8,51.6,30.01,SSW,194,5.0,6.0,77,0.00,,,0.00,Wunderground v.1.15,2013-03-30 19:39:00,
2013-03-30 12:45:00,59.1,51.5,30.01,SSW,194,5.0,6.0,76,0.00,,,0.00,Wunderground v.1.15,2013-03-30 19:45:00,
2013-03-30 12:51:00,58.9,51.0,30.01,SSW,194,5.0,6.0,75,0.00,,,0.00,Wunderground v.1.15,2013-03-30 19:51:00,
2013-03-30 12:57:00,58.7,51.2,30.00,SSW,195,6.0,7.0,76,0.00,,,0.00,Wunderground v.1.15,2013-03-30 19:57:00,
2013-03-30 13:03:00,58.7,51.2,30.00,SSW,196,5.0,6.0,76,0.00,,,0.00,Wunderground v.1.15,2013-03-30 20:03:00,
2013-03-30 13:09:00,58.5,51.3,30.00,SSW,203,4.0,6.0,77,0.00,,,0.00,Wunderground v.1.15,2013-03-30 20:09:00,
2013-03-30 13:15:00,58.5,51.0,30.01,SSW,203,4.0,6.0,76,0.00,,,0.00,Wunderground v.1.15,2013-03-30 20:15:00,
2013-03-30 13:21:00,57.9,50.7,30.00,SSW,204,3.0,6.0,77,0.00,,,0.00,Wunderground v.1.15,2013-03-30 20:21:00,
2013-03-30 13:27:00,56.7,49.9,30.00,SSW,204,3.0,6.0,78,0.00,,,0.00,Wunderground v.1.15,2013-03-30 20:27:00,
2013-03-30 13:32:00,55.6,49.5,30.01,SSW,204,3.0,6.0,80,0.00,,,0.00,Wunderground v.1.15,2013-03-30 20:32:00,
2013-03-30 13:38:00,55.5,49.8,30.01,SSW,204,3.0,6.0,81,0.00,,,0.00,Wunderground v.1.15,2013-03-30 20:38:00,
2013-03-30 13:44:00,55.7,50.3,30.01,SSW,204,3.0,6.0,82,0.00,,,0.00,Wunderground v.1.15,2013-03-30 20:44:00,
2013-03-30 13:49:00,55.9,50.2,30.00,SSW,204,3.0,6.0,81,0.00,,,0.00,Wunderground v.1.15,2013-03-30 20:49:00,
2013-03-30 13:54:00,55.8,50.1,30.00,SSW,204,3.0,6.0,81,0.00,,,0.00,Wunderground v.1.15,2013-03-30 20:54:00,
2013-03-30 13:59:00,55.8,50.1,30.00,SSW,204,3.0,6.0,81,0.00,,,0.00,Wunderground v.1.15,2013-03-30 20:59:00,
2013-03-30 14:06:00,56.2,50.8,30.00,SSW,204,3.0,6.0,82,0.00,,,0.00,Wunderground v.1.15,2013-03-30 21:06:00,
2013-03-30 14:13:00,57.1,51.3,30.00,SSW,204,3.0,6.0,81,0.00,,,0.00,Wunderground v.1.15,2013-03-30 21:13:00,
2013-03-30 14:18:00,57.9,51.8,30.00,SSW,204,3.0,6.0,80,0.00,,,0.00,Wunderground v.1.15,2013-03-30 21:18:00,
2013-03-30 14:23:00,58.4,51.9,30.00,SSW,204,3.0,6.0,79,0.00,,,0.00,Wunderground v.1.15,2013-03-30 21:23:00,
2013-03-30 14:29:00,58.1,51.3,30.00,SSW,204,3.0,6.0,78,0.00,,,0.00,Wunderground v.1.15,2013-03-30 21:29:00,
2013-03-30 14:34:00,58.6,52.1,30.00,SSW,204,3.0,6.0,79,0.00,,,0.00,Wunderground v.1.15,2013-03-30 21:34:00,
2013-03-30 14:40:00,59.6,52.7,30.00,SSW,204,2.0,6.0,78,0.00,,,0.00,Wunderground v.1.15,2013-03-30 21:40:00,
2013-03-30 14:45:00,60.2,52.6,30.00,SSW,204,3.0,6.0,76,0.00,,,0.00,Wunderground v.1.15,2013-03-30 21:45:00,
2013-03-30 14:50:00,60.2,51.9,30.00,SSW,204,4.0,6.0,74,0.00,,,0.00,Wunderground v.1.15,2013-03-30 21:50:00,
2013-03-30 14:56:00,59.9,51.2,29.99,SSW,204,4.0,6.0,73,0.00,,,0.00,Wunderground v.1.15,2013-03-30 21:56:00,
2013-03-30 15:02:00,59.3,51.4,29.99,SSW,204,5.0,6.0,75,0.00,,,0.00,Wunderground v.1.15,2013-03-30 22:02:00,
2013-03-30 15:07:00,59.0,51.4,29.99,SSW,204,4.0,6.0,76,0.00,,,0.00,Wunderground v.1.15,2013-03-30 22:07:00,
2013-03-30 15:13:00,58.8,52.0,29.99,SSW,204,4.0,6.0,78,0.00,,,0.00,Wunderground v.1.15,2013-03-30 22:13:00,
2013-03-30 15:18:00,58.7,52.2,29.99,SSW,204,4.0,6.0,79,0.00,,,0.00,Wunderground v.1.15,2013-03-30 22:18:00,
2013-03-30 15:24:00,57.6,50.8,29.99,SSW,204,5.0,6.0,78,0.00,,,0.00,Wunderground v.1.15,2013-03-30 22:24:00,
2013-03-30 15:29:00,57.5,51.4,29.99,SSW,204,5.0,7.0,80,0.00,,,0.00,Wunderground v.1.15,2013-03-30 22:29:00,
2013-03-30 15:35:00,57.5,51.4,29.99,SSW,202,6.0,7.0,80,0.00,,,0.00,Wunderground v.1.15,2013-03-30 22:35:00,
2013-03-30 15:40:00,57.9,51.8,29.99,SSW,196,6.0,7.0,80,0.00,,,0.00,Wunderground v.1.15,2013-03-30 22:40:00,
2013-03-30 15:45:00,57.7,51.6,29.99,SSW,198,6.0,7.0,80,0.00,,,0.00,Wunderground v.1.15,2013-03-30 22:45:00,
2013-03-30 15:51:00,57.6,51.5,29.99,SSW,202,6.0,6.0,80,0.00,,,0.00,Wunderground v.1.15,2013-03-30 22:51:00,
2013-03-30 15:57:00,56.8,50.7,29.99,SSW,202,6.0,7.0,80,0.00,,,0.00,Wunderground v.1.15,2013-03-30 22:57:00,
2013-03-30 16:03:00,56.1,50.3,29.99,SSW,202,6.0,8.0,81,0.00,,,0.00,Wunderground v.1.15,2013-03-30 23:03:00,
2013-03-30 16:08:00,56.3,50.9,29.99,SSW,203,6.0,8.0,82,0.00,,,0.00,Wunderground v.1.15,2013-03-30 23:08:00,
2013-03-30 16:14:00,56.5,51.1,29.98,SSW,203,5.0,7.0,82,0.00,,,0.00,Wunderground v.1.15,2013-03-30 23:14:00,
2013-03-30 16:20:00,56.6,51.2,29.98,SSW,203,5.0,6.0,82,0.00,,,0.00,Wunderground v.1.15,2013-03-30 23:20:00,
2013-03-30 16:26:00,56.3,50.9,29.98,SSW,204,5.0,7.0,82,0.00,,,0.00,Wunderground v.1.15,2013-03-30 23:26:00,
2013-03-30 16:32:00,56.0,50.6,29.98,SSW,207,5.0,6.0,82,0.00,,,0.00,Wunderground v.1.15,2013-03-30 23:32:00,
2013-03-30 16:38:00,56.1,51.0,29.98,SSW,208,5.0,6.0,83,0.00,,,0.00,Wunderground v.1.15,2013-03-30 23:38:00,
2013-03-30 16:43:00,56.2,50.8,29.98,SSW,208,4.0,6.0,82,0.00,,,0.00,Wunderground v.1.15,2013-03-30 23:43:00,
2013-03-30 16:48:00,55.8,50.7,29.98,SSW,208,4.0,6.0,83,0.00,,,0.00,Wunderground v.1.15,2013-03-30 23:48:00,
2013-03-30 16:54:00,55.7,50.6,29.98,SSW,208,4.0,6.0,83,0.00,,,0.00,Wunderground v.1.15,2013-03-30 23:54:00,
2013-03-30 16:59:00,55.4,50.0,29.98,SSW,208,4.0,6.0,82,0.00,,,0.00,Wunderground v.1.15,2013-03-30 23:59:00,
2013-03-30 17:04:00,54.8,49.7,29.97,SSW,208,5.0,6.0,83,0.00,,,0.00,Wunderground v.1.15,2013-03-31 00:04:00,
2013-03-30 17:10:00,54.2,49.5,29.97,SSW,208,5.0,5.0,84,0.00,,,0.00,Wunderground v.1.15,2013-03-31 00:10:00,
2013-03-30 17:15:00,54.4,50.0,29.97,SSW,208,5.0,7.0,85,0.00,,,0.00,Wunderground v.1.15,2013-03-31 00:15:00,
2013-03-30 17:20:00,54.4,50.0,29.97,SSW,208,4.0,6.0,85,0.00,,,0.00,Wunderground v.1.15,2013-03-31 00:20:00,
2013-03-30 17:26:00,54.1,49.7,29.97,SSW,208,4.0,6.0,85,0.00,,,0.00,Wunderground v.1.15,2013-03-31 00:26:00,
2013-03-30 17:32:00,54.1,49.7,29.98,SSW,208,4.0,6.0,85,0.00,,,0.00,Wunderground v.1.15,2013-03-31 00:32:00,
2013-03-30 17:37:00,53.7,49.6,29.98,SSW,208,4.0,7.0,86,0.00,,,0.00,Wunderground v.1.15,2013-03-31 00:37:00,
2013-03-30 17:43:00,53.7,49.6,29.99,SSW,207,5.0,7.0,86,0.00,,,0.00,Wunderground v.1.15,2013-03-31 00:43:00,
2013-03-30 17:48:00,53.6,49.8,29.99,SW,227,7.0,8.0,87,0.00,,,0.00,Wunderground v.1.15,2013-03-31 00:48:00,
2013-03-30 17:53:00,53.3,49.5,29.98,SW,223,8.0,11.0,87,0.00,,,0.00,Wunderground v.1.15,2013-03-31 00:53:00,
2013-03-30 17:58:00,53.3,49.8,29.99,SSW,194,9.0,12.0,88,0.00,,,0.00,Wunderground v.1.15,2013-03-31 00:58:00,
2013-03-30 18:03:00,53.1,49.6,29.98,SW,223,11.0,15.0,88,0.00,,,0.00,Wunderground v.1.15,2013-03-31 01:03:00,
2013-03-30 18:09:00,52.9,49.7,29.98,SW,221,12.0,12.0,89,0.00,,,0.00,Wunderground v.1.15,2013-03-31 01:09:00,
2013-03-30 18:16:00,52.3,49.2,29.99,SSW,209,12.0,18.0,89,0.00,,,0.00,Wunderground v.1.15,2013-03-31 01:16:00,
2013-03-30 18:22:00,51.9,49.1,29.98,SSW,203,13.0,15.0,90,0.00,,,0.00,Wunderground v.1.15,2013-03-31 01:22:00,
2013-03-30 18:27:00,51.9,49.1,29.98,SSW,203,12.0,15.0,90,0.00,,,0.00,Wunderground v.1.15,2013-03-31 01:27:00,
2013-03-30 18:32:00,51.6,49.1,29.98,South,186,12.0,16.0,91,0.00,,,0.00,Wunderground v.1.15,2013-03-31 01:32:00,
2013-03-30 18:38:00,51.2,48.7,29.98,SSW,193,13.0,18.0,91,0.00,,,0.00,Wunderground v.1.15,2013-03-31 01:38:00,
2013-03-30 18:43:00,50.6,48.4,29.99,SW,216,14.0,17.0,92,0.00,,,0.00,Wunderground v.1.15,2013-03-31 01:43:00,
2013-03-30 18:48:00,50.3,48.1,29.99,SSW,196,14.0,17.0,92,0.00,,,0.00,Wunderground v.1.15,2013-03-31 01:48:00,
2013-03-30 18:54:00,49.9,48.0,29.99,SSW,200,14.0,14.0,93,0.00,,,0.00,Wunderground v.1.15,2013-03-31 01:54:00,
2013-03-30 19:00:00,49.6,47.9,29.99,South,188,13.0,13.0,94,0.00,,,0.00,Wunderground v.1.15,2013-03-31 02:00:00,
2013-03-30 19:05:00,49.5,47.8,29.99,SSW,209,13.0,17.0,94,0.00,,,0.00,Wunderground v.1.15,2013-03-31 02:05:00,
2013-03-30 19:12:00,49.4,47.7,29.99,SSW,194,13.0,13.0,94,0.00,,,0.00,Wunderground v.1.15,2013-03-31 02:12:00,
2013-03-30 19:17:00,49.4,47.7,29.99,SSW,205,10.0,15.0,94,0.00,,,0.00,Wunderground v.1.15,2013-03-31 02:17:00,
2013-03-30 19:22:00,49.4,47.7,29.99,SSW,199,10.0,16.0,94,0.00,,,0.00,Wunderground v.1.15,2013-03-31 02:22:00,
2013-03-30 19:28:00,49.4,48.0,29.99,SSW,194,11.0,17.0,95,0.00,,,0.00,Wunderground v.1.15,2013-03-31 02:28:00,
2013-03-30 19:33:00,49.3,47.9,29.99,SSW,202,12.0,16.0,95,0.00,,,0.00,Wunderground v.1.15,2013-03-31 02:33:00,
2013-03-30 19:38:00,49.2,47.8,29.99,SW,225,12.0,18.0,95,0.00,,,0.00,Wunderground v.1.15,2013-03-31 02:38:00,
2013-03-30 19:44:00,49.2,47.8,29.99,SSW,203,12.0,14.0,95,0.00,,,0.00,Wunderground v.1.15,2013-03-31 02:44:00,
2013-03-30 19:50:00,49.2,47.8,29.99,SSW,205,12.0,13.0,95,0.00,,,0.00,Wunderground v.1.15,2013-03-31 02:50:00,
2013-03-30 19:55:00,49.2,47.8,29.99,SSW,195,10.0,13.0,95,0.00,,,0.00,Wunderground v.1.15,2013-03-31 02:55:00,
2013-03-30 20:00:00,49.2,47.8,29.99,SSW,194,9.0,13.0,95,0.00,,,0.00,Wunderground v.1.15,2013-03-31 03:00:00,
2013-03-30 20:06:00,49.2,47.8,30.00,SSW,204,9.0,13.0,95,0.00,,,0.00,Wunderground v.1.15,2013-03-31 03:06:00,
2013-03-30 20:12:00,49.4,47.7,30.00,SSW,207,10.0,10.0,94,0.00,,,0.00,Wunderground v.1.15,2013-03-31 03:12:00,
2013-03-30 20:18:00,49.6,47.7,30.01,SSW,205,10.0,11.0,93,0.00,,,0.00,Wunderground v.1.15,2013-03-31 03:18:00,
2013-03-30 20:23:00,49.8,47.9,30.01,SSW,201,9.0,12.0,93,0.00,,,0.00,Wunderground v.1.15,2013-03-31 03:23:00,
2013-03-30 20:29:00,50.1,47.9,30.02,SSW,199,9.0,16.0,92,0.00,,,0.00,Wunderground v.1.15,2013-03-31 03:29:00,
2013-03-30 20:35:00,50.4,47.9,30.02,SSW,198,9.0,13.0,91,0.00,,,0.00,Wunderground v.1.15,2013-03-31 03:35:00,
2013-03-30 20:41:00,50.6,47.8,30.02,South,190,8.0,11.0,90,0.00,,,0.00,Wunderground v.1.15,2013-03-31 03:41:00,
2013-03-30 20:47:00,50.6,47.5,30.02,SSW,203,8.0,13.0,89,0.00,,,0.00,Wunderground v.1.15,2013-03-31 03:47:00,
2013-03-30 20:53:00,50.7,47.3,30.01,SW,224,9.0,11.0,88,0.00,,,0.00,Wunderground v.1.15,2013-03-31 03:53:00,
2013-03-30 20:58:00,50.7,47.3,30.02,SSW,209,8.0,12.0,88,0.00,,,0.00,Wunderground v.1.15,2013-03-31 03:58:00,
2013-03-30 21:00:00,50.6,47.2,30.02,SSW,211,8.0,10.0,88,0.00,,,0.00,Wunderground v.1.15,2013-03-31 04:00:00,
2013-03-30 21:01:00,50.6,47.2,30.02,SSW,209,8.0,11.0,88,0.00,,,0.00,Wunderground v.1.15,2013-03-31 04:01:00,
2013-03-30 21:02:00,50.6,47.2,30.02,SSW,199,8.0,11.0,88,0.00,,,0.00,Wunderground v.1.15,2013-03-31 04:02:00,
2013-03-30 21:04:00,50.6,47.2,30.02,SSW,195,8.0,11.0,88,0.00,,,0.00,Wunderground v.1.15,2013-03-31 04:04:00,
2013-03-30 21:10:00,50.5,47.1,30.03,SSW,202,9.0,9.0,88,0.00,,,0.00,Wunderground v.1.15,2013-03-31 04:10:00,
2013-03-30 21:15:00,50.6,47.2,30.03,South,187,9.0,14.0,88,0.00,,,0.00,Wunderground v.1.15,2013-03-31 04:15:00,
2013-03-30 21:20:00,50.7,47.3,30.03,SSW,203,11.0,14.0,88,0.00,,,0.00,Wunderground v.1.15,2013-03-31 04:20:00,
2013-03-30 21:25:00,50.6,47.2,30.03,SSW,194,10.0,14.0,88,0.00,,,0.00,Wunderground v.1.15,2013-03-31 04:25:00,
2013-03-30 21:30:00,50.6,47.5,30.03,SSW,198,9.0,9.0,89,0.00,,,0.00,Wunderground v.1.15,2013-03-31 04:30:00,
2013-03-30 21:37:00,50.5,47.4,30.02,SSW,202,8.0,12.0,89,0.00,,,0.00,Wunderground v.1.15,2013-03-31 04:37:00,
2013-03-30 21:43:00,50.5,47.7,30.02,South,178,8.0,10.0,90,0.00,,,0.00,Wunderground v.1.15,2013-03-31 04:43:00,
2013-03-30 21:49:00,50.5,47.7,30.01,SSW,198,7.0,10.0,90,0.00,,,0.00,Wunderground v.1.15,2013-03-31 04:49:00,
2013-03-30 21:55:00,50.6,47.8,30.01,South,181,6.0,7.0,90,0.00,,,0.00,Wunderground v.1.15,2013-03-31 04:55:00,
2013-03-30 22:01:00,50.8,48.0,30.01,South,173,5.0,6.0,90,0.00,,,0.00,Wunderground v.1.15,2013-03-31 05:01:00,
2013-03-30 22:07:00,50.9,48.1,30.02,SSE,162,3.0,7.0,90,0.00,,,0.00,Wunderground v.1.15,2013-03-31 05:07:00,
2013-03-30 22:12:00,51.0,48.2,30.03,SE,138,2.0,6.0,90,0.00,,,0.00,Wunderground v.1.15,2013-03-31 05:12:00,
2013-03-30 22:18:00,51.1,48.3,30.03,SE,138,1.0,6.0,90,0.00,,,0.00,Wunderground v.1.15,2013-03-31 05:18:00,
2013-03-30 22:23:00,51.2,48.4,30.04,SE,138,0.0,6.0,90,0.00,,,0.01,Wunderground v.1.15,2013-03-31 05:23:00,
2013-03-30 22:28:00,51.3,48.5,30.03,SE,138,0.0,6.0,90,0.00,,,0.01,Wunderground v.1.15,2013-03-31 05:28:00,
2013-03-30 22:34:00,51.4,48.9,30.02,SE,138,1.0,6.0,91,0.00,,,0.01,Wunderground v.1.15,2013-03-31 05:34:00,
2013-03-30 22:39:00,51.7,49.2,30.02,SE,138,1.0,6.0,91,0.00,,,0.01,Wunderground v.1.15,2013-03-31 05:39:00,
2013-03-30 22:45:00,52.0,49.2,30.02,SE,138,1.0,6.0,90,0.00,,,0.01,Wunderground v.1.15,2013-03-31 05:45:00,
2013-03-30 22:51:00,52.0,49.2,30.02,SE,140,1.0,6.0,90,0.00,,,0.01,Wunderground v.1.15,2013-03-31 05:51:00,
2013-03-30 22:56:00,52.1,49.3,30.02,SE,140,1.0,6.0,90,0.00,,,0.01,Wunderground v.1.15,2013-03-31 05:56:00,
2013-03-30 23:02:00,52.3,49.5,30.01,SE,140,2.0,6.0,90,0.00,,,0.01,Wunderground v.1.15,2013-03-31 06:02:00,
2013-03-30 23:08:00,52.6,49.8,30.00,SE,140,1.0,6.0,90,0.00,,,0.01,Wunderground v.1.15,2013-03-31 06:08:00,
2013-03-30 23:13:00,52.3,49.2,30.00,SE,140,1.0,6.0,89,0.00,,,0.01,Wunderground v.1.15,2013-03-31 06:13:00,
2013-03-30 23:20:00,52.1,49.3,30.02,ESE,109,2.0,2.0,90,0.00,,,0.01,Wunderground v.1.15,2013-03-31 06:20:00,
2013-03-30 23:25:00,52.0,49.2,30.02,ESE,109,2.0,6.0,90,0.00,,,0.01,Wunderground v.1.15,2013-03-31 06:25:00,
2013-03-30 23:31:00,51.7,48.9,30.01,ESE,109,1.0,6.0,90,0.00,,,0.01,Wunderground v.1.15,2013-03-31 06:31:00,
2013-03-30 23:37:00,51.7,49.2,30.00,ESE,111,1.0,6.0,91,0.00,,,0.01,Wunderground v.1.15,2013-03-31 06:37:00,
2013-03-30 23:43:00,52.0,49.5,30.00,SE,139,3.0,6.0,91,0.00,,,0.01,Wunderground v.1.15,2013-03-31 06:43:00,
2013-03-30 23:48:00,52.2,49.7,30.00,SSE,160,4.0,6.0,91,0.00,,,0.01,Wunderground v.1.15,2013-03-31 06:48:00,
2013-03-30 23:53:00,52.1,49.6,30.00,SSE,160,3.0,6.0,91,0.00,,,0.01,Wunderground v.1.15,2013-03-31 06:53:00,
2013-03-30 23:59:00,51.9,49.4,29.99,SSE,161,3.0,6.0,91,0.00,,,0.01,Wunderground v.1.15,2013-03-31 06:59:00,